Swanson Ranch 3, NV

9:24 PM PDT en Octubre 19, 2014 (GMT -0700)
RAWS RED BUTTE NV US | Change Station
CLOSE
Current Station
Estación meteorológica personal
Location: Austin, NV
Altura: 5025 ft
Estaciones meteorológicas cercanas

Alt 5025 ft 39.99 °N, 117.32 °W | Updated 45 minutes ago

Despejado
Despejado
61 ° F
Sensación térmica 61 ° F
N
0
Viento Variable Viento desde Norte
Gusts 7.0 mph

Hoy
Alta -- | Baja -- ° F
--% Posibilidad de precipitaciones
Ayer
Alta -- | Baja -- ° F
Precip. -- pul
7:04 AM 6:03 PM
Creciente menguante, 13% visible
Presión 29.89 pul
Visibilidad -9999.0 Millas
Nubes
Punto de rocío 28 ° F
Humedad 28%
Precipitaciones 0.00 pul
Espesor de la nieve No disponible.
UV No disponible.
Polen 2.90 de una escala de 12
Calidad del aire No disponible.
Flu Activity No Activity
METAR KP68 200353Z AUTO 18007KT 14/M01 A3005 RMK AO1 SLP121 T01441006

More Conditions Fewer Conditions

Presión 29.89 pul
Visibilidad -9999.0 Millas
Nubes
Punto de rocío 28 ° F
Humedad 28%
Precipitaciones 0.00 pul
Espesor de la nieve No disponible.
UV No disponible.
Polen 2.90 de una escala de 12
Calidad del aire No disponible.
Flu Activity No Activity
METAR KP68 200353Z AUTO 18007KT 14/M01 A3005 RMK AO1 SLP121 T01441006

More Conditions Fewer Conditions

10-Day Weather Forecast

Almanac

Astronomía

Oct. 19, 2014 Salida Puesta
Hora real 7:04 AM PDT 6:03 PM PDT
Crepúsculo civil 6:36 AM PDT 6:31 PM PDT
Crepúsculo náutico 6:05 AM PDT 7:02 PM PDT
Crepúsculo astronómico 5:34 AM PDT 7:34 PM PDT
Luna 3:01 AM PDT (10/19) 3:58 PM PDT (10/19)
Horas de luz 11h 54m
Horas de luz
10h 59m
Creciente menguante, 13% of the Moon is Illuminated
Oct 20
Creciente menguante
Oct 23
Nueva
Oct 30
Cuarto creciente
Nov 6
Luna llena
Nov 14
Cuarto menguante

Extremos de ayer

Máximos del estado Bajos del estado

Community

WunderPhotos

Upload Photos

1,763,294 ¡fotos cargadas!

Nearby

Grosos de nieve

Estación Profundido Altura
Big Creek Summit 1 in 8700 ft
Diamond Peak 0 in 8000 ft
Corral Canyon 0 in 8500 ft
Lamance Creek 0 in 6000 ft
Taylor Canyon 1 in 6200 ft

Actividad de terremotos

Ciudad Distance Mag. Tiempo y dato
No hay informes recientes de la actividad sísmica.
Magnitud mínima muestra es 2,5.

Temperaturas de aguas costeras

Lugar Temperatura
Sin partes meteorológicos de las estaciones

Estaciones meteorológicas cercanas